Terminal Aerodrome Forecast
Issued by NWS

Home | Current Version | Previous Version | Graphics & Text | Print | Product List | Glossary On
Versions: 1 2 3 4 5 6 7 8 9 10 11 12 13 14 15 16 17 18 19 20 21 22 23 24 25 26
000
FTUS43 KICT 251131
TAFSLN
TAF
KSLN 251131Z 2512/2612 17012KT P6SM SCT025 BKN040
     FM251400 18016G23KT P6SM BKN035
     FM251600 19012KT P6SM SCT015
     FM251900 20011KT P6SM SCT200
     FM260700 17008KT P6SM SCT150=

USA.gov is the U.S. government's official web portal to all federal, state and local government web resources and services.